Time;durP1;ratioP1;P1;durP2;ratioP2;P2;SDS_P1;SDS_P2;PMS_P1;PMS_P2;Temp;Humidity;BMP_temperature;BMP_pressure;BME280_temperature;BME280_humidity;BME280_pressure;Samples;Min_cycle;Max_cycle;Signal;HPM_P1;HPM_P2
2022/09/22 00:01:43;;;;;;;23.00;19.90;;;;;;;7.13;100.00;98398.48;105648;1281;22659;-85
2022/09/22 00:04:12;;;;;;;33.20;26.20;;;;;;;7.05;100.00;98395.95;105755;1281;25410;-84
2022/09/22 00:06:46;;;;;;;24.40;21.90;;;;;;;6.98;100.00;98394.27;106263;1281;25271;-86
2022/09/22 00:09:17;;;;;;;28.00;23.50;;;;;;;6.94;100.00;98392.77;106865;1281;22677;-82
2022/09/22 00:11:48;;;;;;;28.20;25.30;;;;;;;6.94;100.00;98391.80;106390;1281;22559;-87
2022/09/22 00:14:38;;;;;;;30.00;26.80;;;;;;;6.90;100.00;98390.86;105831;1281;24251;-85
2022/09/22 00:17:06;;;;;;;28.50;25.60;;;;;;;6.87;100.00;98394.76;105725;1281;22693;-84
2022/09/22 00:19:37;;;;;;;22.20;19.80;;;;;;;6.82;100.00;98398.08;105730;1281;22710;-88
2022/09/22 00:22:05;;;;;;;23.10;20.10;;;;;;;6.79;100.00;98398.64;105813;1281;24363;-85
2022/09/22 00:24:33;;;;;;;22.90;20.40;;;;;;;6.78;100.00;98397.73;105480;1281;23237;-85
2022/09/22 00:27:01;;;;;;;22.10;18.50;;;;;;;6.75;100.00;98398.20;105718;1281;22749;-84
2022/09/22 00:29:29;;;;;;;22.70;18.40;;;;;;;6.73;100.00;98402.05;105805;1281;25246;-86
2022/09/22 00:31:57;;;;;;;32.70;20.80;;;;;;;6.72;100.00;98403.70;105650;1283;24675;-86
2022/09/22 00:34:31;;;;;;;24.50;20.10;;;;;;;6.67;100.00;98404.54;105518;1284;24317;-88
2022/09/22 00:36:59;;;;;;;22.30;17.90;;;;;;;6.63;100.00;98399.48;105712;1281;25354;-87
2022/09/22 00:39:29;;;;;;;23.50;19.20;;;;;;;6.63;100.00;98401.31;105180;1284;25405;-87
2022/09/22 00:41:57;;;;;;;21.50;18.50;;;;;;;6.64;100.00;98407.24;105672;1281;22534;-86
2022/09/22 00:44:25;;;;;;;23.80;19.30;;;;;;;6.66;100.00;98405.76;105704;1281;24251;-85
2022/09/22 00:47:02;;;;;;;26.70;24.20;;;;;;;6.69;100.00;98406.09;105739;1281;24408;-85
2022/09/22 00:50:02;;;;;;;33.00;25.60;;;;;;;6.70;100.00;98399.57;105746;1281;22564;-89
2022/09/22 00:52:57;;;;;;;28.10;25.40;;;;;;;6.68;100.00;98401.28;105795;1281;23992;-88
2022/09/22 00:55:52;;;;;;;31.90;21.10;;;;;;;6.66;100.00;98400.57;105992;1281;25358;-87
2022/09/22 00:58:27;;;;;;;30.70;21.70;;;;;;;6.64;100.00;98405.85;106575;1281;22584;-87
2022/09/22 01:00:55;;;;;;;41.60;21.00;;;;;;;6.66;100.00;98403.35;106897;1281;24223;-86
2022/09/22 01:03:25;;;;;;;50.80;19.50;;;;;;;6.62;100.00;98403.33;106307;1281;24324;-84
2022/09/22 01:06:00;;;;;;;33.60;19.50;;;;;;;6.56;100.00;98402.50;106067;1281;22605;-83
2022/09/22 01:08:30;;;;;;;21.00;18.60;;;;;;;6.51;100.00;98398.73;106009;1281;23686;-86
2022/09/22 01:10:59;;;;;;;23.90;18.40;;;;;;;6.49;100.00;98402.09;105815;1281;22509;-86
2022/09/22 01:13:34;;;;;;;24.80;18.00;;;;;;;6.46;100.00;98400.84;105995;1281;22713;-85
2022/09/22 01:16:48;;;;;;;22.40;17.10;;;;;;;6.46;100.00;98401.53;105980;1281;22651;-84
2022/09/22 01:19:44;;;;;;;20.70;17.10;;;;;;;6.43;100.00;98396.96;105111;1287;25576;-85
2022/09/22 01:22:49;;;;;;;22.10;16.70;;;;;;;6.45;100.00;98397.25;105244;1285;25480;-86
2022/09/22 01:25:41;;;;;;;27.40;16.80;;;;;;;6.45;100.00;98397.20;105454;1286;22550;-85
2022/09/22 01:28:37;;;;;;;28.40;18.10;;;;;;;6.45;100.00;98396.21;105431;1290;25251;-87
2022/09/22 01:31:26;;;;;;;25.80;17.30;;;;;;;6.39;100.00;98395.67;105438;1287;22991;-84
2022/09/22 01:34:12;;;;;;;24.20;18.00;;;;;;;6.36;100.00;98396.98;105447;1286;25255;-86
2022/09/22 01:36:51;;;;;;;22.70;17.80;;;;;;;6.36;100.00;98396.61;105462;1287;22714;-86
2022/09/22 01:39:34;;;;;;;29.30;18.60;;;;;;;6.35;100.00;98401.86;105393;1287;25919;-86
2022/09/22 01:42:05;;;;;;;31.40;19.50;;;;;;;6.36;100.00;98396.77;105382;1288;22562;-85
2022/09/22 01:44:44;;;;;;;44.40;25.10;;;;;;;6.36;100.00;98395.91;105397;1287;25994;-85
2022/09/22 01:47:21;;;;;;;37.50;28.40;;;;;;;6.28;100.00;98393.03;105328;1285;25390;-84
2022/09/22 01:49:58;;;;;;;35.90;28.40;;;;;;;6.27;100.00;98392.81;105394;1286;24378;-84
2022/09/22 01:52:30;;;;;;;30.30;27.60;;;;;;;6.28;100.00;98392.06;105859;1281;22727;-84
2022/09/22 01:55:23;;;;;;;31.30;28.00;;;;;;;6.30;100.00;98391.11;105952;1281;22703;-83
2022/09/22 01:58:14;;;;;;;36.40;29.10;;;;;;;6.31;100.00;98392.14;105820;1281;24859;-84
2022/09/22 02:00:48;;;;;;;38.00;34.20;;;;;;;6.30;100.00;98394.33;105876;1281;22556;-85
2022/09/22 02:03:28;;;;;;;49.60;34.50;;;;;;;6.30;100.00;98394.21;107139;1281;22576;-86
2022/09/22 02:06:03;;;;;;;69.60;61.70;;;;;;;6.31;100.00;98398.40;105812;1281;22690;-86
2022/09/22 02:08:36;;;;;;;57.50;52.40;;;;;;;6.33;100.00;98395.89;105707;1281;22797;-86
2022/09/22 02:11:12;;;;;;;43.80;39.40;;;;;;;6.38;100.00;98396.58;105732;1281;22580;-86
2022/09/22 02:13:43;;;;;;;41.10;32.50;;;;;;;6.37;100.00;98393.08;105808;1281;25421;-85
2022/09/22 02:16:13;;;;;;;42.20;28.00;;;;;;;6.35;100.00;98395.60;105737;1281;25796;-86
2022/09/22 02:18:59;;;;;;;35.40;24.80;;;;;;;6.36;100.00;98393.61;105698;1281;22696;-86
2022/09/22 02:21:43;;;;;;;30.60;22.00;;;;;;;6.35;100.00;98390.98;105611;1281;22598;-86
2022/09/22 02:24:35;;;;;;;32.60;25.20;;;;;;;6.35;100.00;98391.73;105788;1281;22695;-84
2022/09/22 02:27:08;;;;;;;53.70;26.40;;;;;;;6.32;100.00;98390.31;105723;1281;23879;-85
2022/09/22 02:29:42;;;;;;;46.20;26.20;;;;;;;6.31;100.00;98392.23;105739;1281;24093;-85
2022/09/22 02:32:15;;;;;;;36.20;26.70;;;;;;;6.28;100.00;98388.63;105839;1281;23322;-86
2022/09/22 02:34:45;;;;;;;57.10;24.40;;;;;;;6.26;100.00;98396.11;105733;1281;22797;-84
2022/09/22 02:37:32;;;;;;;41.60;23.20;;;;;;;6.27;100.00;98392.64;106240;1281;24513;-85
2022/09/22 02:40:20;;;;;;;39.00;26.00;;;;;;;6.29;100.00;98393.30;106840;1281;22811;-85
2022/09/22 02:43:06;;;;;;;51.90;27.20;;;;;;;6.29;100.00;98390.89;105661;1281;23930;-85
2022/09/22 02:46:17;;;;;;;56.70;29.00;;;;;;;6.27;100.00;98396.71;105720;1281;23018;-85
2022/09/22 02:48:49;;;;;;;45.80;28.90;;;;;;;6.23;100.00;98394.77;105587;1281;22714;-85
2022/09/22 02:51:17;;;;;;;31.40;28.20;;;;;;;6.22;100.00;98388.71;105744;1281;25500;-85
2022/09/22 02:53:45;;;;;;;37.20;29.40;;;;;;;6.26;100.00;98390.61;105707;1281;22543;-85
2022/09/22 02:56:13;;;;;;;36.90;28.20;;;;;;;6.29;100.00;98390.61;105726;1281;22558;-87
2022/09/22 02:58:41;;;;;;;34.70;29.20;;;;;;;6.29;100.00;98384.67;105741;1281;22588;-84
2022/09/22 03:01:09;;;;;;;35.50;29.00;;;;;;;6.30;100.00;98383.46;105869;1281;22688;-85
2022/09/22 03:03:37;;;;;;;35.70;28.10;;;;;;;6.29;100.00;98385.37;105800;1281;24264;-85
2022/09/22 03:06:05;;;;;;;34.20;27.70;;;;;;;6.29;100.00;98386.39;105711;1281;25293;-85
2022/09/22 03:08:33;;;;;;;29.10;26.10;;;;;;;6.31;100.00;98392.58;105720;1281;24269;-86
2022/09/22 03:11:01;;;;;;;30.30;25.80;;;;;;;6.37;100.00;98393.30;105715;1281;23939;-85
2022/09/22 03:13:29;;;;;;;31.00;27.20;;;;;;;6.41;100.00;98393.20;105500;1284;22593;-85
2022/09/22 03:15:57;;;;;;;35.10;25.70;;;;;;;6.43;100.00;98392.69;105758;1281;22621;-85
2022/09/22 03:18:25;;;;;;;38.10;27.80;;;;;;;6.43;100.00;98397.17;105661;1281;22626;-85
2022/09/22 03:20:52;;;;;;;33.00;26.70;;;;;;;6.44;100.00;98393.00;105665;1281;23953;-86
2022/09/22 03:23:20;;;;;;;29.20;26.30;;;;;;;6.45;100.00;98391.36;105671;1281;24288;-86
2022/09/22 03:25:48;;;;;;;27.40;24.30;;;;;;;6.50;100.00;98391.83;105452;1281;25510;-86
2022/09/22 03:28:16;;;;;;;31.70;24.00;;;;;;;6.55;100.00;98393.98;105611;1281;24417;-85
2022/09/22 03:30:44;;;;;;;28.90;23.90;;;;;;;6.57;100.00;98392.44;105634;1281;22862;-86
2022/09/22 03:33:12;;;;;;;37.00;23.90;;;;;;;6.60;100.00;98388.65;105416;1281;25643;-88
2022/09/22 03:35:40;;;;;;;31.40;26.10;;;;;;;6.57;100.00;98392.60;105684;1281;22644;-89
2022/09/22 03:38:08;;;;;;;31.20;23.90;;;;;;;6.53;100.00;98389.31;105467;1282;22723;-87
2022/09/22 03:40:36;;;;;;;36.80;23.50;;;;;;;6.47;100.00;98395.55;105644;1281;24228;-86
2022/09/22 03:43:04;;;;;;;35.40;19.00;;;;;;;6.45;100.00;98399.45;105654;1281;22622;-88
2022/09/22 03:45:32;;;;;;;27.80;20.70;;;;;;;6.41;100.00;98403.17;105661;1281;24505;-87
2022/09/22 03:48:00;;;;;;;25.50;20.50;;;;;;;6.34;100.00;98402.44;105657;1281;23458;-87
2022/09/22 03:50:28;;;;;;;37.00;17.70;;;;;;;6.33;100.00;98399.48;105880;1281;22696;-86
2022/09/22 03:52:56;;;;;;;23.00;18.60;;;;;;;6.32;100.00;98399.80;107212;1281;25360;-85
2022/09/22 03:55:24;;;;;;;25.40;19.00;;;;;;;6.19;100.00;98402.88;105669;1281;22584;-83
2022/09/22 03:57:52;;;;;;;32.40;20.60;;;;;;;6.15;100.00;98400.92;107182;1281;24102;-87
2022/09/22 04:00:20;;;;;;;29.50;20.50;;;;;;;6.14;100.00;98400.42;105670;1281;22534;-87
2022/09/22 04:02:48;;;;;;;26.40;21.70;;;;;;;6.14;100.00;98395.13;105736;1281;22583;-85
2022/09/22 04:05:16;;;;;;;41.20;24.20;;;;;;;6.13;100.00;98395.83;105709;1281;22558;-84
2022/09/22 04:07:44;;;;;;;55.60;27.30;;;;;;;6.15;100.00;98397.81;105713;1281;23933;-86
2022/09/22 04:10:12;;;;;;;32.60;26.00;;;;;;;6.17;100.00;98396.38;105613;1281;24205;-86
2022/09/22 04:12:40;;;;;;;56.80;32.40;;;;;;;6.15;100.00;98393.70;105720;1281;22666;-85
2022/09/22 04:15:09;;;;;;;50.70;32.20;;;;;;;6.12;100.00;98394.15;105716;1281;24430;-86
2022/09/22 04:17:37;;;;;;;48.90;30.50;;;;;;;6.12;100.00;98392.50;105734;1281;22612;-86
2022/09/22 04:20:07;;;;;;;57.10;32.10;;;;;;;6.17;100.00;98397.61;105680;1281;22545;-85
2022/09/22 04:22:34;;;;;;;60.70;34.00;;;;;;;6.19;100.00;98399.23;105627;1281;22703;-87
2022/09/22 04:25:03;;;;;;;37.30;30.70;;;;;;;6.22;100.00;98401.81;105660;1281;25453;-84
2022/09/22 04:27:31;;;;;;;42.00;32.10;;;;;;;6.27;100.00;98399.12;105608;1281;22550;-87
2022/09/22 04:30:00;;;;;;;50.20;32.60;;;;;;;6.27;100.00;98400.94;105622;1281;25253;-85
2022/09/22 04:32:28;;;;;;;31.50;28.20;;;;;;;6.27;100.00;98402.27;105671;1281;22575;-87
2022/09/22 04:34:56;;;;;;;36.80;31.50;;;;;;;6.29;100.00;98398.59;105663;1281;25235;-86
2022/09/22 04:37:24;;;;;;;38.40;29.10;;;;;;;6.30;100.00;98400.86;105517;1282;23321;-87
2022/09/22 04:39:53;;;;;;;30.60;26.90;;;;;;;6.32;100.00;98403.98;105469;1281;25239;-87
2022/09/22 04:42:22;;;;;;;35.80;29.40;;;;;;;6.31;100.00;98406.21;105680;1281;25325;-87
2022/09/22 04:44:50;;;;;;;30.40;27.10;;;;;;;6.30;100.00;98406.69;105629;1281;24354;-86
2022/09/22 04:47:18;;;;;;;29.30;26.40;;;;;;;6.28;100.00;98407.69;105705;1281;22908;-86
2022/09/22 04:49:46;;;;;;;35.60;26.30;;;;;;;6.28;100.00;98407.20;105641;1281;24013;-85
2022/09/22 04:52:14;;;;;;;31.10;26.40;;;;;;;6.26;100.00;98408.16;105667;1281;25369;-86
2022/09/22 04:54:42;;;;;;;31.20;27.90;;;;;;;6.30;100.00;98406.09;105665;1281;22556;-87
2022/09/22 04:57:10;;;;;;;31.00;25.00;;;;;;;6.36;100.00;98409.72;105663;1281;22559;-86
2022/09/22 04:59:37;;;;;;;27.80;23.80;;;;;;;6.40;100.00;98407.48;105650;1281;25371;-86
2022/09/22 05:02:06;;;;;;;28.90;24.60;;;;;;;6.43;100.00;98412.88;105619;1281;22780;-86
2022/09/22 05:04:34;;;;;;;39.30;26.70;;;;;;;6.44;100.00;98409.50;105643;1281;24273;-86
2022/09/22 05:07:02;;;;;;;31.80;25.80;;;;;;;6.44;100.00;98404.80;106009;1281;22708;-86
2022/09/22 05:09:30;;;;;;;29.20;24.10;;;;;;;6.44;100.00;98405.60;107143;1281;22550;-87
2022/09/22 05:11:59;;;;;;;28.10;25.00;;;;;;;6.43;100.00;98406.56;105883;1281;22759;-87
2022/09/22 05:14:28;;;;;;;30.60;21.70;;;;;;;6.41;100.00;98407.88;105708;1281;22884;-85
2022/09/22 05:16:56;;;;;;;30.00;21.90;;;;;;;6.40;100.00;98403.74;105626;1281;22647;-86
2022/09/22 05:19:24;;;;;;;23.60;21.00;;;;;;;6.43;100.00;98405.85;105682;1281;25518;-86
2022/09/22 05:21:52;;;;;;;23.00;20.40;;;;;;;6.42;100.00;98403.77;105680;1281;22677;-84
2022/09/22 05:24:20;;;;;;;26.40;22.50;;;;;;;6.41;100.00;98409.90;105698;1281;25419;-87
2022/09/22 05:26:49;;;;;;;24.70;20.30;;;;;;;6.40;100.00;98409.44;105745;1281;25246;-86
2022/09/22 05:29:17;;;;;;;19.90;17.80;;;;;;;6.42;100.00;98412.44;105769;1281;25404;-87
2022/09/22 05:31:45;;;;;;;26.10;20.30;;;;;;;6.42;100.00;98413.07;105649;1281;23316;-87
2022/09/22 05:34:13;;;;;;;22.50;19.60;;;;;;;6.42;100.00;98417.84;105654;1281;22560;-86
2022/09/22 05:36:41;;;;;;;23.30;19.60;;;;;;;6.40;100.00;98416.44;105507;1281;24304;-85
2022/09/22 05:39:09;;;;;;;33.30;22.00;;;;;;;6.38;100.00;98418.88;105671;1281;25232;-84
2022/09/22 05:41:37;;;;;;;24.10;21.60;;;;;;;6.41;100.00;98419.54;105697;1281;25375;-85
2022/09/22 05:44:05;;;;;;;21.40;19.30;;;;;;;6.45;100.00;98423.54;105680;1281;22738;-84
2022/09/22 05:46:33;;;;;;;20.30;17.50;;;;;;;6.47;100.00;98423.71;105712;1281;24253;-85
2022/09/22 05:49:01;;;;;;;24.50;20.00;;;;;;;6.44;100.00;98428.40;105730;1281;22573;-82
2022/09/22 05:51:29;;;;;;;24.40;21.30;;;;;;;6.46;100.00;98425.16;106689;1281;22555;-83
2022/09/22 05:53:57;;;;;;;27.10;21.60;;;;;;;6.50;100.00;98429.67;106666;1281;24212;-86
2022/09/22 05:56:24;;;;;;;25.40;21.90;;;;;;;6.52;100.00;98429.20;105860;1281;23191;-86
2022/09/22 05:58:53;;;;;;;29.40;25.90;;;;;;;6.51;100.00;98431.06;105869;1280;24412;-86
2022/09/22 06:01:20;;;;;;;28.20;25.20;;;;;;;6.57;100.00;98434.30;105752;1281;24230;-86
2022/09/22 06:03:48;;;;;;;23.70;21.30;;;;;;;6.64;100.00;98435.05;105739;1281;22717;-85
2022/09/22 06:06:17;;;;;;;21.10;18.90;;;;;;;6.67;100.00;98436.55;105778;1281;23104;-86
2022/09/22 06:08:44;;;;;;;21.10;19.10;;;;;;;6.65;100.00;98437.08;105942;1281;22570;-85
2022/09/22 06:11:15;;;;;;;20.90;18.80;;;;;;;6.63;100.00;98444.31;105688;1281;25481;-86
2022/09/22 06:13:43;;;;;;;20.00;17.90;;;;;;;6.60;100.00;98444.83;106181;1281;22599;-85
2022/09/22 06:16:11;;;;;;;20.00;18.00;;;;;;;6.59;100.00;98449.75;105647;1281;25236;-86
2022/09/22 06:18:40;;;;;;;16.50;14.90;;;;;;;6.59;100.00;98450.98;105740;1281;23008;-87
2022/09/22 06:21:07;;;;;;;17.90;16.30;;;;;;;6.61;100.00;98449.81;105761;1281;25509;-86
2022/09/22 06:23:35;;;;;;;17.10;15.50;;;;;;;6.63;100.00;98447.78;105894;1281;23051;-85
2022/09/22 06:26:09;;;;;;;18.30;15.20;;;;;;;6.68;100.00;98445.46;107521;1279;22544;-86
2022/09/22 06:28:37;;;;;;;19.30;17.30;;;;;;;6.73;100.00;98448.06;106125;1281;22543;-87
2022/09/22 06:31:05;;;;;;;17.80;15.30;;;;;;;6.76;100.00;98453.16;105799;1280;22575;-84
2022/09/22 06:33:34;;;;;;;16.90;14.80;;;;;;;6.82;100.00;98453.35;105804;1281;24271;-86
2022/09/22 06:36:06;;;;;;;15.40;13.30;;;;;;;6.87;100.00;98452.09;105743;1281;23099;-86
2022/09/22 06:38:34;;;;;;;16.20;14.50;;;;;;;6.94;100.00;98452.81;105765;1281;24996;-88
2022/09/22 06:41:03;;;;;;;14.30;12.90;;;;;;;6.95;100.00;98457.28;105764;1281;25252;-85
2022/09/22 06:43:33;;;;;;;16.30;14.60;;;;;;;6.95;100.00;98456.80;105651;1281;26510;-84
2022/09/22 06:46:01;;;;;;;18.60;14.60;;;;;;;6.99;100.00;98456.00;105729;1281;25637;-87
2022/09/22 06:48:30;;;;;;;15.70;14.00;;;;;;;7.05;100.00;98462.14;105507;1282;25342;-87
2022/09/22 06:50:58;;;;;;;16.60;13.50;;;;;;;7.14;100.00;98459.33;105728;1281;24199;-86
2022/09/22 06:53:27;;;;;;;16.60;14.70;;;;;;;7.20;100.00;98460.11;105853;1281;25277;-85
2022/09/22 06:55:55;;;;;;;13.20;11.80;;;;;;;7.21;100.00;98462.04;106042;1281;24347;-86
2022/09/22 06:58:24;;;;;;;12.70;11.60;;;;;;;7.22;100.00;98460.54;105729;1281;25252;-87
2022/09/22 07:00:52;;;;;;;13.70;12.30;;;;;;;7.27;100.00;98456.60;105792;1281;22542;-86
2022/09/22 07:03:25;;;;;;;13.50;11.70;;;;;;;7.32;100.00;98465.08;105750;1281;24190;-87
2022/09/22 07:05:59;;;;;;;14.00;11.10;;;;;;;7.39;100.00;98462.52;105782;1281;23317;-87
2022/09/22 07:08:30;;;;;;;11.50;10.10;;;;;;;7.43;100.00;98458.94;105777;1281;24107;-85
2022/09/22 07:11:01;;;;;;;12.60;10.80;;;;;;;7.42;100.00;98464.36;105786;1281;24224;-86
2022/09/22 07:13:31;;;;;;;12.40;10.30;;;;;;;7.43;100.00;98464.73;105835;1281;22557;-87
2022/09/22 07:16:00;;;;;;;13.00;10.00;;;;;;;7.48;100.00;98459.92;105752;1281;25243;-87
2022/09/22 07:18:29;;;;;;;14.00;10.80;;;;;;;7.53;100.00;98458.70;105775;1281;24241;-87
2022/09/22 07:21:06;;;;;;;11.20;10.00;;;;;;;7.61;100.00;98456.52;105795;1281;22799;-86
2022/09/22 07:23:35;;;;;;;12.00;9.60;;;;;;;7.69;100.00;98453.58;105841;1281;25417;-88
2022/09/22 07:26:10;;;;;;;13.70;9.70;;;;;;;7.82;100.00;98456.01;105780;1281;22745;-88
2022/09/22 07:28:39;;;;;;;10.30;9.10;;;;;;;7.93;100.00;98450.92;105776;1281;22629;-87
2022/09/22 07:31:10;;;;;;;11.10;9.40;;;;;;;8.03;100.00;98452.06;105797;1281;25242;-88
2022/09/22 07:33:42;;;;;;;8.90;7.90;;;;;;;8.05;100.00;98457.16;105795;1281;22544;-87
2022/09/22 07:36:13;;;;;;;9.70;8.70;;;;;;;8.07;100.00;98452.15;105753;1280;25395;-88
2022/09/22 07:38:43;;;;;;;10.60;8.20;;;;;;;8.17;100.00;98452.64;105766;1281;22543;-87
2022/09/22 07:41:12;;;;;;;14.40;9.10;;;;;;;8.26;100.00;98452.80;106157;1281;24080;-88
2022/09/22 07:43:41;;;;;;;12.00;9.00;;;;;;;8.36;100.00;98455.42;106782;1281;22682;-88
2022/09/22 07:46:11;;;;;;;10.90;9.80;;;;;;;8.40;100.00;98457.87;107190;1281;22547;-88
2022/09/22 07:48:46;;;;;;;9.30;8.30;;;;;;;8.38;100.00;98461.92;105898;1281;22698;-89
2022/09/22 07:51:20;;;;;;;9.90;8.90;;;;;;;8.35;100.00;98453.54;105756;1281;22593;-90
2022/09/22 07:54:08;;;;;;;8.60;7.70;;;;;;;8.45;100.00;98451.84;105777;1281;22532;-86
2022/09/22 07:56:40;;;;;;;10.20;8.60;;;;;;;8.56;100.00;98452.27;105813;1281;25364;-87
2022/09/22 07:59:12;;;;;;;9.40;7.20;;;;;;;8.69;100.00;98450.34;105526;1281;22638;-86
2022/09/22 08:01:48;;;;;;;11.80;8.10;;;;;;;8.73;100.00;98453.39;105818;1281;24239;-87
2022/09/22 08:04:21;;;;;;;14.00;10.70;;;;;;;8.79;100.00;98451.72;105749;1281;22527;-85
2022/09/22 08:06:54;;;;;;;14.50;13.00;;;;;;;8.82;100.00;98449.39;105778;1281;22540;-86
2022/09/22 08:09:24;;;;;;;15.10;13.30;;;;;;;8.82;100.00;98454.13;105767;1281;23197;-85
2022/09/22 08:11:52;;;;;;;15.40;13.30;;;;;;;8.79;100.00;98457.20;105867;1281;24422;-86
2022/09/22 08:14:22;;;;;;;16.70;13.20;;;;;;;8.73;100.00;98458.29;105782;1281;22553;-86
2022/09/22 08:16:52;;;;;;;15.30;13.70;;;;;;;8.75;100.00;98461.57;105820;1281;22579;-85
2022/09/22 08:19:22;;;;;;;15.90;12.70;;;;;;;8.85;100.00;98464.55;106175;1281;22575;-86
2022/09/22 08:21:52;;;;;;;14.30;12.70;;;;;;;8.95;100.00;98468.05;105434;1282;22547;-87
2022/09/22 08:24:21;;;;;;;14.00;10.90;;;;;;;9.11;100.00;98464.82;105777;1281;22621;-86
2022/09/22 08:26:54;;;;;;;14.00;12.20;;;;;;;9.22;100.00;98468.50;105802;1281;22537;-86
2022/09/22 08:29:24;;;;;;;13.10;11.80;;;;;;;9.36;100.00;98474.20;105805;1281;26618;-87
2022/09/22 08:31:52;;;;;;;16.80;12.50;;;;;;;9.48;100.00;98470.35;105762;1281;22566;-87
2022/09/22 08:34:21;;;;;;;13.50;11.20;;;;;;;9.56;99.97;98466.17;105532;1281;22560;-87
2022/09/22 08:36:50;;;;;;;18.30;11.50;;;;;;;9.70;100.00;98464.58;105726;1281;25249;-87
2022/09/22 08:39:18;;;;;;;13.10;11.50;;;;;;;9.85;100.00;98464.44;105758;1281;22547;-88
2022/09/22 08:42:08;;;;;;;16.80;14.20;;;;;;;9.93;100.00;98466.00;105732;1281;22706;-88
2022/09/22 08:44:52;;;;;;;14.00;12.50;;;;;;;9.84;99.77;98468.54;105757;1281;25624;-85
2022/09/22 08:53:22;;;;;;;13.10;11.80;;;;;;;9.71;99.15;98469.48;105780;1281;22575;-87
2022/09/22 08:56:04;;;;;;;16.20;11.80;;;;;;;9.74;98.87;98471.45;105469;1282;22584;-86
2022/09/22 08:58:53;;;;;;;16.40;11.30;;;;;;;9.82;98.97;98470.21;106895;1281;24324;-86
2022/09/22 09:01:37;;;;;;;13.70;11.20;;;;;;;9.92;99.46;98470.63;106837;1282;22560;-86
2022/09/22 09:04:17;;;;;;;12.70;10.70;;;;;;;10.07;99.69;98464.43;105871;1281;25273;-86
2022/09/22 09:06:57;;;;;;;11.60;9.00;;;;;;;10.21;98.46;98461.04;105708;1281;22567;-87
2022/09/22 09:09:42;;;;;;;9.70;7.60;;;;;;;10.34;95.70;98460.69;105800;1281;22711;-84
2022/09/22 09:12:23;;;;;;;;;;;;;;;10.40;94.21;98455.67;105834;1279;22522;-86
2022/09/22 09:15:18;;;;;;;9.70;7.10;;;;;;;10.43;93.98;98454.02;105759;1281;25240;-81
2022/09/22 09:17:47;;;;;;;;;;;;;;;10.51;93.29;98453.90;105732;1281;22524;-81
2022/09/22 09:20:20;;;;;;;12.10;6.80;;;;;;;10.48;92.81;98452.38;105705;1281;22567;-82
2022/09/22 09:22:56;;;;;;;9.90;7.40;;;;;;;10.52;92.95;98449.90;105688;1281;22556;-83
2022/09/22 09:25:46;;;;;;;7.20;6.40;;;;;;;10.52;92.28;98446.89;105752;1281;23012;-84
2022/09/22 09:28:41;;;;;;;8.50;6.60;;;;;;;10.67;92.63;98450.61;105753;1281;25608;-83
2022/09/22 09:31:26;;;;;;;10.00;6.80;;;;;;;10.81;92.53;98447.55;105710;1281;22709;-83
2022/09/22 09:34:01;;;;;;;8.90;6.50;;;;;;;11.02;93.46;98450.23;105471;1281;24303;-82
2022/09/22 09:36:36;;;;;;;10.60;6.90;;;;;;;11.01;92.53;98453.42;105943;1281;22926;-84
2022/09/22 09:39:15;;;;;;;9.20;6.50;;;;;;;10.91;92.76;98448.84;106716;1281;22761;-82
2022/09/22 09:41:47;;;;;;;8.30;5.90;;;;;;;10.76;91.18;98451.38;105760;1281;24099;-84
2022/09/22 09:44:25;;;;;;;8.10;6.30;;;;;;;10.54;90.82;98455.11;105697;1281;22722;-83
2022/09/22 09:47:14;;;;;;;11.00;7.80;;;;;;;10.31;90.65;98453.70;105753;1281;24201;-82
2022/09/22 09:49:42;;;;;;;11.70;6.90;;;;;;;10.21;91.56;98455.83;105715;1281;25453;-83
2022/09/22 09:52:13;;;;;;;12.90;8.50;;;;;;;10.16;91.28;98457.10;105713;1281;22556;-82
2022/09/22 09:54:43;;;;;;;12.20;7.30;;;;;;;10.17;92.56;98452.88;105642;1281;223813;-83
2022/09/22 09:57:18;;;;;;;8.40;6.50;;;;;;;10.26;91.79;98454.27;105395;1281;24305;-82
2022/09/22 10:03:12;;;;;;;11.70;7.10;;;;;;;10.08;92.51;98463.14;105630;1282;22551;-83
2022/09/22 10:05:42;;;;;;;11.50;7.30;;;;;;;10.03;93.18;98463.98;105814;1281;22554;-83
2022/09/22 10:08:18;;;;;;;10.30;6.50;;;;;;;9.95;93.55;98458.02;105727;1281;25574;-84
2022/09/22 10:10:47;;;;;;;9.00;6.80;;;;;;;9.95;93.47;98459.73;105484;1281;22551;-82
2022/09/22 10:13:39;;;;;;;8.80;6.00;;;;;;;9.95;93.26;98457.37;105572;1281;25360;-83
2022/09/22 10:16:24;;;;;;;9.20;6.40;;;;;;;9.89;93.07;98460.33;106216;1281;24097;-84
2022/09/22 10:19:04;;;;;;;8.30;6.20;;;;;;;9.89;93.73;98461.98;106812;1281;23719;-89
2022/09/22 10:21:36;;;;;;;7.40;6.40;;;;;;;9.93;94.08;98449.84;106447;1281;22570;-86
2022/09/22 10:24:29;;;;;;;9.80;7.10;;;;;;;10.03;94.35;98454.52;105862;1280;24284;-87
2022/09/22 10:26:58;;;;;;;9.60;6.60;;;;;;;10.15;94.46;98449.08;106025;1281;22541;-90
2022/09/22 10:29:32;;;;;;;8.50;6.10;;;;;;;10.25;94.45;98450.73;105972;1281;22540;-86
2022/09/22 10:32:16;;;;;;;8.50;6.00;;;;;;;10.36;94.40;98453.88;105564;1282;22552;-88
2022/09/22 10:34:49;;;;;;;8.80;6.00;;;;;;;10.51;93.76;98453.64;105984;1281;22543;-88
2022/09/22 10:37:26;;;;;;;9.40;6.60;;;;;;;10.59;93.07;98457.00;105896;1281;24228;-85
2022/09/22 10:40:00;;;;;;;7.60;5.50;;;;;;;10.73;93.41;98453.67;105901;1281;24734;-87
2022/09/22 10:42:34;;;;;;;9.20;6.90;;;;;;;10.87;93.28;98450.23;105909;1281;22793;-85
2022/09/22 10:45:05;;;;;;;8.60;5.50;;;;;;;11.02;93.14;98449.58;106782;1281;22545;-89
2022/09/22 10:47:55;;;;;;;6.80;5.30;;;;;;;11.18;92.47;98445.94;108449;1281;22562;-84
2022/09/22 10:51:03;;;;;;;6.10;5.10;;;;;;;11.37;91.28;98440.45;105822;1281;25357;-89
2022/09/22 10:53:45;;;;;;;7.40;5.70;;;;;;;11.42;88.63;98441.14;105954;1281;23207;-85
2022/09/22 10:56:24;;;;;;;6.10;5.40;;;;;;;11.42;90.03;98440.39;105882;1281;22668;-84
2022/09/22 10:58:59;;;;;;;7.70;4.80;;;;;;;11.46;89.75;98437.98;105940;1281;25475;-88
2022/09/22 11:01:57;;;;;;;6.20;5.00;;;;;;;11.40;88.80;98444.15;106264;1281;23246;-89
2022/09/22 11:05:01;;;;;;;7.90;5.80;;;;;;;11.11;86.53;98448.18;106256;1281;22797;-86
2022/09/22 11:14:17;;;;;;;8.40;6.90;;;;;;;10.69;87.79;98440.30;107101;1282;22843;-91
2022/09/22 11:17:00;;;;;;;6.30;5.20;;;;;;;10.70;88.01;98442.45;106459;1282;22492;-91
2022/09/22 11:19:28;;;;;;;10.40;5.80;;;;;;;10.72;88.69;98438.65;107237;1282;24382;-92
2022/09/22 11:22:32;;;;;;;7.30;4.70;;;;;;;10.80;89.39;98435.38;106419;1282;22579;-90
2022/09/22 11:25:13;;;;;;;6.90;5.80;;;;;;;10.82;88.96;98430.17;105934;1282;24245;-89
2022/09/22 11:27:53;;;;;;;6.30;5.20;;;;;;;10.95;89.15;98426.97;107096;1282;22612;-82
2022/09/22 11:30:21;;;;;;;7.20;5.70;;;;;;;11.20;88.78;98422.72;107741;1282;23858;-87
2022/09/22 11:33:32;;;;;;;6.50;5.10;;;;;;;11.45;88.17;98419.58;108102;1282;22549;-87
2022/09/22 11:36:35;;;;;;;8.00;6.10;;;;;;;11.77;87.26;98414.21;106331;1282;24333;-91
2022/09/22 11:39:19;;;;;;;7.80;6.10;;;;;;;12.02;86.33;98415.34;106410;1288;23195;-89
2022/09/22 11:42:02;;;;;;;11.90;6.70;;;;;;;12.20;85.93;98411.09;105411;1286;22506;-90
2022/09/22 11:44:36;;;;;;;10.10;4.90;;;;;;;12.41;85.04;98414.61;105156;1287;22768;-90
2022/09/22 11:47:31;;;;;;;6.90;5.40;;;;;;;12.23;81.26;98420.55;105127;1287;22868;-89
2022/09/22 11:50:04;;;;;;;10.30;6.20;;;;;;;12.01;80.31;98415.75;105327;1287;24283;-92
2022/09/22 11:53:07;;;;;;;7.00;6.00;;;;;;;11.88;81.97;98414.05;105482;1287;22872;-91
2022/09/22 11:56:22;;;;;;;7.00;5.20;;;;;;;11.95;82.58;98410.31;105478;1287;22553;-91
2022/09/22 11:58:52;;;;;;;;;;;;;;;12.24;83.02;98410.23;106009;1287;22540;-91
2022/09/22 12:01:27;;;;;;;7.20;5.30;;;;;;;12.53;83.19;98404.25;105400;1287;22547;-90
2022/09/22 12:04:03;;;;;;;5.60;4.60;;;;;;;12.81;84.29;98398.13;105459;1289;22583;-87